createdAt,value
2022-07-30T11:58:34.875Z,3.50
2022-07-30T12:01:09.074Z,3.50
2022-07-30T18:46:24.812Z,4.70
2022-07-30T18:48:52.145Z,4.55
2022-07-30T18:51:19.427Z,4.60
2022-07-30T18:53:48.362Z,4.13
2022-07-30T18:56:15.675Z,4.13
2022-07-30T18:58:42.938Z,4.35
2022-07-30T19:01:10.364Z,4.65
2022-07-30T19:03:37.690Z,4.40
2022-07-30T19:06:05.651Z,4.18
2022-07-30T19:08:33.839Z,5.10
2022-07-30T19:11:01.272Z,5.35
2022-07-30T19:13:29.315Z,5.60
2022-07-30T19:15:56.708Z,6.75
2022-07-30T19:18:24.005Z,9.20
2022-07-30T19:20:51.874Z,9.25
2022-07-30T19:23:19.124Z,5.43
2022-07-30T19:25:46.388Z,5.10
2022-07-30T19:28:15.574Z,4.63
2022-07-30T19:30:43.140Z,4.40
2022-07-30T19:33:15.609Z,5.00
2022-07-30T19:35:43.591Z,4.63
2022-07-30T19:38:11.920Z,4.40
2022-07-30T19:40:49.430Z,4.47
2022-07-30T19:43:16.743Z,4.45
2022-07-30T19:45:47.121Z,5.57
2022-07-30T19:48:29.496Z,6.18
2022-07-30T19:51:00.690Z,5.40
2022-07-30T19:53:31.292Z,5.22
2022-07-30T19:56:03.263Z,5.20
2022-07-30T19:58:33.592Z,5.30
2022-07-30T20:01:02.293Z,5.50
2022-07-30T20:03:37.123Z,5.43
2022-07-30T20:06:07.270Z,5.40
2022-07-30T20:08:35.901Z,4.80
2022-07-30T20:11:06.191Z,4.65
2022-07-30T20:13:45.122Z,5.40
2022-07-30T20:16:17.491Z,5.65
2022-07-30T20:18:46.025Z,5.68
2022-07-30T20:21:16.043Z,4.93
2022-07-30T20:23:45.175Z,5.05
2022-07-30T20:26:15.199Z,5.25
2022-07-30T20:28:52.330Z,4.47
2022-07-30T20:31:21.468Z,4.65
2022-07-30T20:33:50.101Z,4.47
2022-07-30T20:36:18.809Z,5.10
2022-07-30T20:38:47.347Z,6.93
2022-07-30T20:41:14.995Z,4.78
2022-07-30T20:43:51.560Z,4.55
2022-07-30T20:46:23.448Z,4.82
2022-07-30T20:48:53.092Z,4.95
2022-07-30T20:51:20.800Z,8.15
2022-07-30T20:53:49.409Z,13.88
2022-07-30T20:56:19.548Z,9.95
2022-07-30T21:01:33.591Z,5.90
2022-07-30T21:04:02.367Z,5.10
2022-07-30T21:06:30.044Z,4.90
2022-07-30T21:08:56.898Z,4.25
2022-07-30T21:11:24.153Z,5.32
2022-07-30T21:13:53.138Z,5.78
2022-07-30T21:16:23.155Z,5.15
2022-07-30T21:18:50.787Z,4.63
2022-07-30T21:21:29.294Z,5.53
2022-07-30T21:24:05.721Z,5.03
2022-07-30T21:26:32.757Z,5.32
2022-07-30T21:29:21.074Z,5.22
2022-07-30T21:32:02.793Z,4.78
2022-07-30T21:34:36.057Z,4.47
2022-07-30T21:37:09.064Z,4.68
2022-07-30T21:39:39.777Z,5.00
2022-07-30T21:42:10.139Z,4.95
2022-07-30T21:44:38.105Z,4.80
2022-07-30T21:47:10.072Z,5.60
2022-07-30T21:49:38.057Z,5.13
2022-07-30T21:52:05.641Z,4.85
2022-07-30T21:54:45.030Z,5.15
2022-07-30T21:57:12.455Z,5.63
2022-07-30T21:59:40.527Z,5.05
2022-07-30T22:02:18.790Z,4.38
2022-07-30T22:04:47.606Z,4.40
2022-07-30T22:07:17.436Z,4.65
2022-07-30T22:09:44.177Z,5.57
2022-07-30T22:12:12.534Z,6.70
2022-07-30T22:14:39.925Z,6.82
2022-07-30T22:17:22.911Z,5.43
2022-07-30T22:19:54.612Z,5.60
2022-07-30T22:22:26.793Z,4.82
2022-07-30T22:24:57.345Z,4.80
2022-07-30T22:27:26.835Z,4.25
2022-07-30T22:29:55.809Z,4.80
2022-07-30T22:32:23.831Z,4.05
2022-07-30T22:34:51.717Z,4.40
2022-07-30T22:37:21.564Z,4.38
2022-07-30T22:39:50.738Z,5.05
2022-07-30T22:42:24.366Z,4.97
2022-07-30T22:44:52.697Z,4.60
2022-07-30T22:47:21.544Z,4.60
2022-07-30T22:50:08.035Z,4.25
2022-07-30T22:52:38.835Z,5.20
2022-07-30T22:55:09.298Z,5.20
2022-07-30T22:57:40.437Z,4.95
2022-07-30T23:00:11.767Z,4.53
2022-07-30T23:02:40.341Z,4.50
2022-07-30T23:05:08.975Z,5.00
2022-07-30T23:07:39.656Z,4.55
2022-07-30T23:10:16.941Z,4.90
2022-07-30T23:12:26.632Z,7.30
2022-07-30T23:12:48.238Z,4.60
2022-07-30T23:15:15.276Z,4.03
2022-07-30T23:17:43.643Z,4.82
2022-07-30T23:20:13.306Z,4.60
2022-07-30T23:22:40.306Z,4.60
2022-07-30T23:25:10.356Z,4.78
2022-07-30T23:27:37.351Z,4.57
2022-07-30T23:30:04.562Z,4.55
2022-07-30T23:32:32.317Z,4.28
2022-07-30T23:34:59.078Z,4.85
2022-07-30T23:37:26.563Z,4.57
2022-07-30T23:39:53.349Z,5.20
2022-07-30T23:42:20.108Z,4.72
2022-07-30T23:44:46.870Z,4.90
2022-07-30T23:47:13.624Z,4.93
2022-07-30T23:49:40.605Z,4.88
2022-07-30T23:52:07.619Z,5.25
2022-07-30T23:54:34.415Z,4.70
2022-07-30T23:57:01.535Z,4.82
2022-07-30T23:59:41.629Z,4.53
